createdAt,value
2022-11-18T00:02:09.481Z,1.15
2022-11-18T00:04:36.466Z,1.33
2022-11-18T00:07:03.616Z,0.98
2022-11-18T00:09:30.584Z,1.05
2022-11-18T00:12:16.420Z,2.15
2022-11-18T00:14:43.149Z,0.93
2022-11-18T00:17:10.152Z,1.20
2022-11-18T00:19:39.554Z,1.27
2022-11-18T00:22:08.041Z,1.52
2022-11-18T00:24:34.976Z,1.48
2022-11-18T00:27:02.023Z,1.08
2022-11-18T00:29:30.931Z,1.40
2022-11-18T00:31:58.170Z,1.03
2022-11-18T00:34:25.762Z,1.50
2022-11-18T00:36:52.733Z,1.00
2022-11-18T00:39:20.616Z,1.10
2022-11-18T00:42:06.840Z,0.90
2022-11-18T00:44:34.108Z,1.05
2022-11-18T00:47:00.988Z,1.38
2022-11-18T00:49:28.010Z,1.65
2022-11-18T00:51:55.037Z,1.45
2022-11-18T00:54:22.743Z,1.30
2022-11-18T00:56:49.707Z,1.00
2022-11-18T00:59:16.923Z,1.38
2022-11-18T01:01:44.780Z,1.00
2022-11-18T01:04:11.904Z,1.10
2022-11-18T01:06:38.967Z,1.20
2022-11-18T01:09:06.300Z,1.38
2022-11-18T01:11:51.748Z,1.30
2022-11-18T01:14:18.678Z,1.13
2022-11-18T01:16:51.082Z,1.30
2022-11-18T01:19:19.586Z,1.27
2022-11-18T01:21:47.006Z,1.20
2022-11-18T01:24:13.829Z,1.35
2022-11-18T01:26:40.799Z,1.85
2022-11-18T01:29:07.854Z,2.78
2022-11-18T01:31:34.863Z,1.08
2022-11-18T01:34:01.920Z,1.00
2022-11-18T01:36:29.190Z,1.30
2022-11-18T01:38:56.689Z,1.20
2022-11-18T01:41:26.292Z,1.30
2022-11-18T01:44:01.940Z,1.23
2022-11-18T01:46:34.156Z,1.25
2022-11-18T01:49:14.581Z,1.27
2022-11-18T01:51:49.849Z,1.80
2022-11-18T01:54:24.550Z,1.27
2022-11-18T01:56:55.429Z,1.33
2022-11-18T01:59:26.082Z,1.73
2022-11-18T02:01:59.635Z,1.65
2022-11-18T02:04:27.699Z,1.48
2022-11-18T02:06:57.122Z,1.63
2022-11-18T02:09:24.064Z,1.73
2022-11-18T02:11:51.985Z,1.60
2022-11-18T02:14:22.909Z,1.70
2022-11-18T02:17:01.718Z,2.25
2022-11-18T02:19:47.129Z,2.10
2022-11-18T02:22:50.120Z,1.90
2022-11-18T02:25:29.062Z,2.40
2022-11-18T02:28:13.560Z,2.07
2022-11-18T02:30:46.533Z,2.22
2022-11-18T02:33:23.094Z,2.70
2022-11-18T02:36:10.423Z,2.47
2022-11-18T02:38:46.228Z,1.88
2022-11-18T02:41:27.955Z,3.67
2022-11-18T02:44:16.370Z,2.67
2022-11-18T02:46:47.736Z,2.28
2022-11-18T02:49:28.846Z,2.35
2022-11-18T02:51:57.717Z,2.55
2022-11-18T02:54:26.409Z,2.67
2022-11-18T02:56:55.145Z,2.17
2022-11-18T02:59:22.072Z,2.30
2022-11-18T03:01:49.173Z,2.38
2022-11-18T03:04:18.153Z,2.38
2022-11-18T03:07:22.418Z,2.40
2022-11-18T03:09:52.052Z,1.80
2022-11-18T03:12:45.304Z,2.20
2022-11-18T03:15:44.596Z,2.45
2022-11-18T03:18:47.329Z,2.47
2022-11-18T03:21:34.907Z,1.63
2022-11-18T03:24:14.413Z,2.38
2022-11-18T03:26:48.268Z,2.10
2022-11-18T03:29:25.775Z,2.05
2022-11-18T03:32:12.835Z,2.20
2022-11-18T03:35:08.171Z,1.70
2022-11-18T03:37:35.691Z,2.42
2022-11-18T03:40:11.291Z,2.33
2022-11-18T03:42:50.453Z,2.50
2022-11-18T03:45:28.937Z,2.15
2022-11-18T03:48:12.675Z,2.45
2022-11-18T03:50:48.421Z,2.22
2022-11-18T03:53:17.780Z,2.30
2022-11-18T03:55:49.407Z,1.90
2022-11-18T03:58:21.934Z,1.80
2022-11-18T04:00:54.633Z,2.30
2022-11-18T04:03:21.720Z,2.28
2022-11-18T04:05:56.976Z,1.83
2022-11-18T04:08:30.302Z,2.00
2022-11-18T04:11:09.201Z,1.98
2022-11-18T04:13:38.458Z,2.00
2022-11-18T04:16:07.659Z,1.90
2022-11-18T04:18:34.712Z,2.33
2022-11-18T04:21:01.756Z,3.15
2022-11-18T04:23:28.801Z,3.13
2022-11-18T04:25:55.860Z,1.90
2022-11-18T04:28:22.907Z,2.30
2022-11-18T04:30:50.922Z,2.60
2022-11-18T04:33:17.833Z,2.65
2022-11-18T04:35:47.062Z,5.50
2022-11-18T04:38:19.105Z,3.00
2022-11-18T04:40:48.408Z,2.30
2022-11-18T04:43:15.459Z,2.17
2022-11-18T04:45:42.473Z,1.80
2022-11-18T04:48:09.553Z,2.00
2022-11-18T04:50:36.589Z,2.47
2022-11-18T04:53:03.626Z,2.17
2022-11-18T04:55:30.707Z,2.10
2022-11-18T04:57:57.720Z,2.40
2022-11-18T05:00:24.380Z,2.20
2022-11-18T05:02:51.430Z,3.40
2022-11-18T05:05:18.448Z,1.95
2022-11-18T05:07:45.681Z,1.80
2022-11-18T05:10:12.700Z,1.73
2022-11-18T05:12:48.810Z,1.48
2022-11-18T05:15:20.584Z,1.80
2022-11-18T05:17:48.017Z,1.98
2022-11-18T05:20:15.573Z,2.03
2022-11-18T05:22:42.877Z,2.25
2022-11-18T05:25:09.961Z,2.25
2022-11-18T05:27:36.665Z,1.90
2022-11-18T05:30:04.403Z,2.13
2022-11-18T05:32:31.160Z,2.65
2022-11-18T05:34:58.362Z,1.92
2022-11-18T05:37:25.299Z,3.38
2022-11-18T05:39:52.357Z,2.58
2022-11-18T05:42:38.013Z,2.13
2022-11-18T05:45:05.294Z,2.97
2022-11-18T05:47:52.256Z,2.75
2022-11-18T05:50:21.477Z,3.70
2022-11-18T05:52:48.542Z,2.60
2022-11-18T05:55:16.889Z,2.47
2022-11-18T05:57:43.809Z,2.10
2022-11-18T06:00:11.294Z,2.60
2022-11-18T06:02:38.374Z,2.50
2022-11-18T06:05:05.975Z,2.42
2022-11-18T06:07:41.350Z,3.47
2022-11-18T06:10:13.003Z,4.32
2022-11-18T06:12:44.569Z,2.55
2022-11-18T06:15:43.197Z,2.58
2022-11-18T06:18:23.654Z,2.42
2022-11-18T06:20:52.966Z,2.00
2022-11-18T06:23:20.035Z,2.90
2022-11-18T06:25:47.778Z,2.50
2022-11-18T06:28:16.205Z,2.20
2022-11-18T06:30:43.158Z,2.97
2022-11-18T06:33:10.113Z,2.30
2022-11-18T06:35:37.157Z,2.17
2022-11-18T06:38:04.299Z,2.10
2022-11-18T06:40:34.784Z,2.72
2022-11-18T06:43:27.689Z,2.03
2022-11-18T06:46:17.633Z,2.75
2022-11-18T06:48:44.917Z,2.75
2022-11-18T06:51:11.976Z,1.92
2022-11-18T06:53:39.063Z,2.47
2022-11-18T06:56:12.100Z,2.45
2022-11-18T06:58:39.075Z,2.95
2022-11-18T07:01:23.607Z,2.28
2022-11-18T07:03:51.535Z,3.00
2022-11-18T07:06:24.414Z,2.38
2022-11-18T07:08:52.081Z,2.55
2022-11-18T07:11:22.343Z,2.45
2022-11-18T07:13:49.592Z,1.83
2022-11-18T07:16:19.741Z,2.35
2022-11-18T07:18:48.135Z,2.13
2022-11-18T07:21:17.960Z,2.35
2022-11-18T07:26:12.621Z,2.92
2022-11-18T07:28:39.705Z,2.33
2022-11-18T07:31:11.943Z,2.10
2022-11-18T07:33:40.056Z,2.92
2022-11-18T07:36:08.998Z,3.50
2022-11-18T07:38:36.474Z,3.17
2022-11-18T07:41:09.079Z,13.95
2022-11-18T07:43:36.864Z,15.70
2022-11-18T07:46:10.174Z,7.05
2022-11-18T07:48:37.232Z,64.65
2022-11-18T07:51:04.289Z,25.42
2022-11-18T07:53:31.911Z,15.45
2022-11-18T07:55:59.212Z,6.22
2022-11-18T07:58:26.374Z,4.63
2022-11-18T08:00:53.092Z,6.60
2022-11-18T08:03:20.456Z,3.35
2022-11-18T08:05:47.501Z,2.50
2022-11-18T08:08:14.636Z,4.35
2022-11-18T08:10:41.602Z,2.85
2022-11-18T08:13:08.747Z,3.45
2022-11-18T08:15:39.435Z,3.50
2022-11-18T08:18:10.997Z,3.78
2022-11-18T08:20:40.652Z,3.38
2022-11-18T08:23:07.482Z,3.25
2022-11-18T08:25:34.541Z,2.78
2022-11-18T08:28:01.627Z,3.35
2022-11-18T08:30:28.345Z,6.65
2022-11-18T08:32:55.549Z,2.08
2022-11-18T08:35:22.344Z,3.10
2022-11-18T08:37:49.377Z,1.88
2022-11-18T08:40:16.530Z,2.17
2022-11-18T08:42:43.500Z,2.28
2022-11-18T08:45:11.330Z,6.72
2022-11-18T08:47:38.836Z,3.30
2022-11-18T08:50:08.754Z,2.63
2022-11-18T08:52:36.212Z,2.45
2022-11-18T08:55:04.572Z,2.53
2022-11-18T08:57:31.677Z,2.22
2022-11-18T08:59:58.633Z,2.90
2022-11-18T09:02:25.733Z,3.70
2022-11-18T09:04:53.020Z,1.52
2022-11-18T09:07:21.455Z,1.90
2022-11-18T09:09:48.464Z,4.55
2022-11-18T09:12:17.476Z,2.78
2022-11-18T09:17:35.027Z,2.03
2022-11-18T09:20:01.964Z,4.40
2022-11-18T09:22:29.041Z,1.98
2022-11-18T09:24:56.026Z,2.65
2022-11-18T09:27:23.186Z,3.92
2022-11-18T09:29:50.157Z,1.90
2022-11-18T09:32:17.246Z,2.58
2022-11-18T09:34:44.309Z,1.83
2022-11-18T09:37:11.751Z,2.72
2022-11-18T09:39:38.841Z,3.05
2022-11-18T09:42:39.452Z,4.18
2022-11-18T09:45:13.489Z,2.38
2022-11-18T09:47:42.090Z,2.90
2022-11-18T09:50:49.112Z,4.20
2022-11-18T09:53:10.554Z,1.90
2022-11-18T09:55:39.483Z,1.73
2022-11-18T09:58:07.205Z,1.43
2022-11-18T10:00:34.352Z,1.65
2022-11-18T10:03:28.650Z,2.63
2022-11-18T10:06:16.911Z,6.95
2022-11-18T10:09:14.593Z,4.95
2022-11-18T10:12:04.565Z,2.13
2022-11-18T10:14:37.511Z,2.90
2022-11-18T10:17:23.106Z,6.93
2022-11-18T10:20:11.012Z,4.95
2022-11-18T10:22:53.334Z,2.40
2022-11-18T10:25:20.253Z,11.63
2022-11-18T10:27:49.294Z,4.05
2022-11-18T10:30:19.429Z,3.03
2022-11-18T10:33:04.295Z,1.40
2022-11-18T10:35:34.703Z,1.45
2022-11-18T10:38:27.705Z,3.92
2022-11-18T10:41:04.484Z,2.47
2022-11-18T10:43:51.649Z,1.67
2022-11-18T10:46:33.389Z,2.97
2022-11-18T10:49:09.385Z,2.95
2022-11-18T10:51:41.438Z,2.15
2022-11-18T10:54:12.720Z,2.78
2022-11-18T10:57:05.174Z,2.70
2022-11-18T10:59:33.833Z,1.80
2022-11-18T11:02:18.795Z,2.28
2022-11-18T11:04:49.890Z,1.63
2022-11-18T11:07:26.179Z,1.60
2022-11-18T11:09:59.842Z,1.20
2022-11-18T11:12:32.578Z,1.48
2022-11-18T11:15:16.564Z,1.98
2022-11-18T11:18:11.741Z,1.90
2022-11-18T11:20:39.058Z,2.38
2022-11-18T11:23:16.622Z,1.70
2022-11-18T11:28:51.436Z,4.63
2022-11-18T11:31:30.543Z,1.80
2022-11-18T11:34:00.368Z,4.80
2022-11-18T11:39:37.003Z,3.10
2022-11-18T11:42:30.071Z,8.02
2022-11-18T11:45:15.542Z,2.80
2022-11-18T11:48:04.282Z,1.73
2022-11-18T11:51:01.946Z,1.95
2022-11-18T11:54:01.849Z,2.20
2022-11-18T11:56:38.219Z,1.50
2022-11-18T11:59:17.154Z,4.80
2022-11-18T12:01:56.096Z,2.75
2022-11-18T12:04:32.326Z,3.00
2022-11-18T12:07:00.312Z,2.15
2022-11-18T12:09:32.821Z,2.35
2022-11-18T12:12:34.843Z,2.50
2022-11-18T12:15:30.956Z,2.50
2022-11-18T12:18:04.012Z,1.65
2022-11-18T12:20:39.007Z,5.15
2022-11-18T12:23:17.815Z,2.20
2022-11-18T12:25:56.707Z,1.40
2022-11-18T12:28:29.148Z,2.10
2022-11-18T12:31:22.193Z,1.75
2022-11-18T12:33:56.063Z,1.45
2022-11-18T12:36:39.417Z,1.42
2022-11-18T12:39:24.610Z,1.42
2022-11-18T12:42:13.538Z,3.45
2022-11-18T12:44:41.697Z,6.63
2022-11-18T12:47:13.989Z,5.18
2022-11-18T12:49:46.661Z,4.15
2022-11-18T12:52:31.720Z,18.65
2022-11-18T12:55:13.521Z,1.75
2022-11-18T12:57:41.640Z,2.03
2022-11-18T13:00:23.229Z,3.63
2022-11-18T13:02:55.532Z,3.55
2022-11-18T13:05:34.450Z,2.92
2022-11-18T13:08:13.730Z,3.00
2022-11-18T13:10:43.722Z,3.35
2022-11-18T13:13:33.308Z,5.18
2022-11-18T13:16:37.831Z,1.30
2022-11-18T13:19:05.166Z,1.60
2022-11-18T13:21:50.658Z,2.35
2022-11-18T13:24:22.944Z,3.17
2022-11-18T13:26:59.134Z,1.58
2022-11-18T13:29:36.305Z,1.15
2022-11-18T13:32:15.210Z,1.42
2022-11-18T13:34:51.783Z,1.60
2022-11-18T13:37:27.370Z,1.67
2022-11-18T13:39:55.528Z,2.55
2022-11-18T13:42:24.992Z,1.67
2022-11-18T13:44:59.214Z,2.38
2022-11-18T13:47:39.199Z,2.10
2022-11-18T13:50:06.124Z,1.13
2022-11-18T13:52:32.920Z,1.38
2022-11-18T13:55:01.388Z,1.70
2022-11-18T13:57:29.931Z,1.73
2022-11-18T14:00:02.281Z,1.88
2022-11-18T14:02:29.003Z,1.30
2022-11-18T14:05:00.296Z,1.83
2022-11-18T14:07:33.357Z,1.60
2022-11-18T14:10:07.583Z,2.10
2022-11-18T14:12:36.224Z,3.00
2022-11-18T14:15:33.049Z,4.68
2022-11-18T14:18:01.499Z,2.15
2022-11-18T14:20:29.936Z,3.33
2022-11-18T14:23:01.645Z,2.50
2022-11-18T14:25:36.386Z,2.13
2022-11-18T14:28:18.333Z,1.80
2022-11-18T14:31:05.267Z,1.08
2022-11-18T14:33:36.831Z,2.83
2022-11-18T14:36:17.761Z,9.50
2022-11-18T14:39:11.735Z,2.30
2022-11-18T14:41:48.502Z,2.50
2022-11-18T14:44:16.788Z,2.47
2022-11-18T14:46:47.399Z,1.60
2022-11-18T14:49:18.427Z,2.05
2022-11-18T14:51:46.069Z,1.20
2022-11-18T14:54:22.309Z,1.23
2022-11-18T14:56:55.456Z,1.48
2022-11-18T14:59:22.283Z,1.70
2022-11-18T15:01:49.565Z,1.52
2022-11-18T15:04:20.882Z,2.35
2022-11-18T15:06:47.916Z,1.83
2022-11-18T15:09:15.083Z,1.65
2022-11-18T15:11:41.965Z,3.47
2022-11-18T15:14:09.311Z,1.58
2022-11-18T15:16:36.380Z,1.85
2022-11-18T15:19:05.429Z,3.05
2022-11-18T15:21:32.832Z,2.15
2022-11-18T15:23:59.655Z,2.38
2022-11-18T15:26:35.900Z,3.15
2022-11-18T15:29:04.035Z,14.80
2022-11-18T15:31:31.134Z,1.80
2022-11-18T15:34:03.455Z,5.88
2022-11-18T15:36:33.553Z,3.08
2022-11-18T15:39:00.468Z,2.97
2022-11-18T15:41:30.279Z,11.45
2022-11-18T15:46:26.094Z,7.85
2022-11-18T15:48:54.646Z,4.93
2022-11-18T15:51:22.455Z,2.13
2022-11-18T15:53:49.428Z,5.80
2022-11-18T15:56:20.459Z,1.80
2022-11-18T15:58:57.584Z,6.03
2022-11-18T16:01:29.792Z,2.15
2022-11-18T16:03:57.279Z,1.77
2022-11-18T16:06:24.775Z,2.03
2022-11-18T16:08:57.626Z,2.90
2022-11-18T16:11:45.397Z,3.10
2022-11-18T16:14:13.973Z,2.88
2022-11-18T16:16:42.737Z,3.50
2022-11-18T16:19:13.305Z,3.33
2022-11-18T16:21:42.070Z,3.60
2022-11-18T16:24:12.762Z,3.33
2022-11-18T16:26:40.038Z,3.38
2022-11-18T16:29:07.755Z,2.95
2022-11-18T16:31:40.814Z,4.85
2022-11-18T16:34:17.956Z,3.97
2022-11-18T16:36:47.192Z,3.22
2022-11-18T16:39:16.520Z,6.00
2022-11-18T16:41:45.223Z,2.95
2022-11-18T16:44:14.510Z,2.60
2022-11-18T16:46:45.612Z,2.60
2022-11-18T16:49:13.910Z,2.80
2022-11-18T16:51:45.189Z,2.53
2022-11-18T16:54:21.010Z,3.10
2022-11-18T16:56:48.116Z,2.22
2022-11-18T16:59:21.674Z,3.42
2022-11-18T17:01:50.300Z,2.70
2022-11-18T17:04:17.879Z,7.13
2022-11-18T17:06:46.299Z,21.25
2022-11-18T17:09:18.997Z,4.20
2022-11-18T17:11:46.336Z,2.60
2022-11-18T17:14:13.378Z,2.35
2022-11-18T17:16:40.763Z,2.38
2022-11-18T17:19:11.910Z,4.65
2022-11-18T17:21:38.994Z,3.92
2022-11-18T17:24:06.722Z,4.63
2022-11-18T17:26:34.892Z,3.72
2022-11-18T17:29:01.730Z,4.13
2022-11-18T17:31:28.415Z,3.40
2022-11-18T17:33:56.391Z,3.13
2022-11-18T17:36:25.335Z,3.50
2022-11-18T17:38:55.435Z,4.13
2022-11-18T17:41:43.144Z,2.80
2022-11-18T17:44:12.147Z,3.42
2022-11-18T17:46:39.740Z,2.60
2022-11-18T17:49:15.474Z,4.32
2022-11-18T17:51:42.720Z,2.67
2022-11-18T17:54:10.366Z,4.18
2022-11-18T17:56:37.282Z,2.35
2022-11-18T17:59:04.464Z,3.65
2022-11-18T18:01:31.504Z,2.75
2022-11-18T18:03:58.534Z,2.72
2022-11-18T18:06:26.769Z,2.50
2022-11-18T18:08:57.845Z,2.90
2022-11-18T18:11:25.749Z,4.00
2022-11-18T18:14:11.560Z,2.70
2022-11-18T18:16:41.017Z,2.85
2022-11-18T18:19:08.831Z,3.05
2022-11-18T18:21:35.807Z,4.07
2022-11-18T18:24:04.169Z,3.70
2022-11-18T18:26:32.097Z,2.85
2022-11-18T18:29:02.560Z,3.35
2022-11-18T18:31:33.826Z,2.65
2022-11-18T18:34:01.087Z,5.38
2022-11-18T18:36:27.832Z,3.08
2022-11-18T18:38:56.053Z,2.80
2022-11-18T18:41:23.578Z,3.45
2022-11-18T18:43:50.868Z,4.45
2022-11-18T18:46:30.412Z,4.82
2022-11-18T18:49:06.314Z,3.58
2022-11-18T18:51:44.721Z,3.50
2022-11-18T18:54:14.623Z,3.80
2022-11-18T18:59:09.754Z,3.72
2022-11-18T19:01:37.648Z,3.35
2022-11-18T19:04:06.821Z,2.88
2022-11-18T19:09:26.121Z,3.55
2022-11-18T19:12:12.710Z,3.83
2022-11-18T19:14:40.088Z,4.38
2022-11-18T19:17:12.581Z,5.88
2022-11-18T19:20:00.259Z,6.88
2022-11-18T19:22:31.055Z,4.53
2022-11-18T19:24:58.834Z,4.63
2022-11-18T19:27:26.359Z,5.38
2022-11-18T19:29:53.551Z,4.80
2022-11-18T19:32:21.016Z,5.05
2022-11-18T19:34:47.860Z,5.07
2022-11-18T19:37:14.902Z,4.85
2022-11-18T19:39:41.988Z,4.72
2022-11-18T19:42:10.874Z,5.47
2022-11-18T19:44:39.004Z,5.60
2022-11-18T19:47:06.219Z,5.13
2022-11-18T19:49:32.973Z,5.05
2022-11-18T19:52:00.082Z,7.28
2022-11-18T19:54:27.069Z,4.80
2022-11-18T19:56:54.221Z,5.32
2022-11-18T19:59:21.489Z,19.42
2022-11-18T20:01:48.774Z,6.68
2022-11-18T20:04:15.691Z,5.95
2022-11-18T20:06:42.712Z,5.18
2022-11-18T20:09:11.105Z,6.32
2022-11-18T20:11:38.387Z,6.68
2022-11-18T20:14:05.789Z,8.07
2022-11-18T20:16:33.587Z,5.78
2022-11-18T20:19:06.590Z,7.32
2022-11-18T20:21:38.838Z,6.30
2022-11-18T20:24:06.924Z,7.13
2022-11-18T20:26:36.837Z,6.43
2022-11-18T20:31:33.147Z,8.20
2022-11-18T20:34:00.313Z,9.02
2022-11-18T20:36:31.994Z,8.32
2022-11-18T20:39:01.469Z,7.95
2022-11-18T20:41:32.206Z,6.95
2022-11-18T20:44:00.263Z,8.20
2022-11-18T20:46:27.647Z,7.20
2022-11-18T20:48:55.143Z,7.63
2022-11-18T20:51:26.465Z,7.43
2022-11-18T20:53:55.465Z,8.32
2022-11-18T20:56:27.452Z,7.60
2022-11-18T20:58:56.576Z,7.25
2022-11-18T21:01:28.687Z,8.07
2022-11-18T21:04:01.172Z,8.30
2022-11-18T21:06:30.213Z,8.77
2022-11-18T21:09:02.584Z,12.43
2022-11-18T21:11:29.943Z,8.57
2022-11-18T21:14:20.049Z,8.63
2022-11-18T21:16:51.141Z,13.27
2022-11-18T21:19:18.539Z,10.13
2022-11-18T21:21:45.665Z,8.23
2022-11-18T21:24:14.333Z,8.07
2022-11-18T21:26:42.223Z,9.15
2022-11-18T21:29:11.182Z,9.85
2022-11-18T21:31:38.657Z,10.60
2022-11-18T21:34:07.139Z,9.27
2022-11-18T21:36:34.187Z,9.55
2022-11-18T21:39:02.232Z,9.13
2022-11-18T21:41:29.717Z,9.32
2022-11-18T21:44:05.385Z,8.75
2022-11-18T21:46:33.943Z,9.38
2022-11-18T21:49:00.830Z,9.57
2022-11-18T21:51:27.887Z,10.15
2022-11-18T21:53:54.912Z,9.73
2022-11-18T21:56:25.050Z,10.75
2022-11-18T21:58:52.616Z,11.00
2022-11-18T22:01:27.277Z,9.57
2022-11-18T22:03:56.320Z,9.70
2022-11-18T22:06:29.680Z,12.13
2022-11-18T22:08:57.122Z,10.50
2022-11-18T22:11:25.523Z,10.55
2022-11-18T22:13:53.269Z,10.80
2022-11-18T22:16:22.635Z,9.48
2022-11-18T22:18:56.608Z,11.30
2022-11-18T22:21:28.760Z,11.63
2022-11-18T22:26:27.929Z,11.38
2022-11-18T22:28:57.206Z,11.23
2022-11-18T22:31:26.048Z,10.40
2022-11-18T22:33:54.565Z,11.75
2022-11-18T22:36:23.664Z,12.65
2022-11-18T22:38:50.963Z,10.02
2022-11-18T22:41:39.002Z,11.30
2022-11-18T22:44:08.446Z,13.52
2022-11-18T22:46:37.208Z,12.80
2022-11-18T22:49:05.051Z,11.05
2022-11-18T22:51:32.326Z,10.80
2022-11-18T22:54:30.815Z,12.80
2022-11-18T22:56:46.389Z,11.50
2022-11-18T22:59:13.881Z,11.75
2022-11-18T23:01:40.962Z,11.43
2022-11-18T23:04:08.037Z,10.60
2022-11-18T23:06:35.203Z,11.50
2022-11-18T23:09:04.354Z,10.98
2022-11-18T23:11:49.750Z,12.32
2022-11-18T23:14:16.791Z,11.13
2022-11-18T23:16:44.235Z,11.52
2022-11-18T23:19:13.683Z,12.13
2022-11-18T23:21:41.290Z,11.38
2022-11-18T23:24:11.540Z,11.48
2022-11-18T23:26:38.736Z,12.32
2022-11-18T23:29:06.305Z,13.00
2022-11-18T23:31:33.651Z,11.90
2022-11-18T23:34:00.575Z,12.07
2022-11-18T23:36:28.027Z,11.55
2022-11-18T23:38:54.991Z,11.15
2022-11-18T23:41:22.361Z,12.82
2022-11-18T23:43:49.505Z,10.73
2022-11-18T23:46:18.139Z,11.98
2022-11-18T23:48:46.125Z,11.70
2022-11-18T23:51:18.076Z,13.90
2022-11-18T23:53:47.909Z,12.52
2022-11-18T23:58:47.427Z,12.05
